createdAt,value
2016-05-02T00:00:22.352Z,1018.96
2016-05-02T00:01:22.324Z,1018.96
2016-05-02T00:02:22.296Z,1018.96
2016-05-02T00:03:22.267Z,1018.97
2016-05-02T00:04:22.254Z,1018.97
2016-05-02T00:05:22.226Z,1019.02
2016-05-02T00:06:22.197Z,1019.02
2016-05-02T00:07:22.168Z,1019
2016-05-02T00:08:22.140Z,1019
2016-05-02T00:09:22.112Z,1019.03
2016-05-02T00:10:22.082Z,1019.03
2016-05-02T00:11:22.070Z,1019.01
2016-05-02T00:12:22.041Z,1018.97
2016-05-02T00:13:22.012Z,1019.01
2016-05-02T00:14:21.983Z,1018.99
2016-05-02T00:15:21.971Z,1019.01
2016-05-02T00:16:21.943Z,1018.98
2016-05-02T00:17:21.898Z,1019.02
2016-05-02T00:18:21.870Z,1018.98
2016-05-02T00:19:21.856Z,1018.99
2016-05-02T00:20:21.828Z,1018.98
2016-05-02T00:21:21.799Z,1018.98
2016-05-02T00:22:21.772Z,1018.95
2016-05-02T00:23:21.742Z,1018.95
2016-05-02T00:24:21.730Z,1018.97
2016-05-02T00:25:21.686Z,1018.94
2016-05-02T00:26:21.672Z,1018.95
2016-05-02T00:27:21.627Z,1018.92
2016-05-02T00:28:21.615Z,1018.95
2016-05-02T00:29:21.603Z,1018.93
2016-05-02T00:30:21.558Z,1018.92
2016-05-02T00:31:21.530Z,1018.92
2016-05-02T00:32:21.501Z,1018.93
2016-05-02T00:33:21.472Z,1018.9
2016-05-02T00:34:21.443Z,1018.9
2016-05-02T00:35:21.431Z,1018.93
2016-05-02T00:36:21.496Z,1018.93
2016-05-02T00:37:21.374Z,1018.9
2016-05-02T00:38:21.345Z,1018.9
2016-05-02T00:39:21.317Z,1018.88
2016-05-02T00:40:21.287Z,1018.87
2016-05-02T00:41:21.260Z,1018.84
2016-05-02T00:42:21.231Z,1018.84
2016-05-02T00:43:21.218Z,1018.87
2016-05-02T00:44:21.189Z,1018.79
2016-05-02T00:45:21.161Z,1018.85
2016-05-02T00:46:21.132Z,1018.84
2016-05-02T00:47:21.103Z,1018.87
2016-05-02T00:48:21.075Z,1018.87
2016-05-02T00:49:21.047Z,1018.88
2016-05-02T00:50:21.018Z,1018.9
2016-05-02T00:51:21.005Z,1018.88
2016-05-02T00:52:20.977Z,1018.88
2016-05-02T00:53:20.948Z,1018.9
2016-05-02T00:54:20.919Z,1018.9
2016-05-02T00:55:20.891Z,1018.87
2016-05-02T00:56:20.863Z,1018.87
2016-05-02T00:57:20.849Z,1018.87
2016-05-02T00:58:20.805Z,1018.85
2016-05-02T00:59:20.777Z,1018.79
2016-05-02T01:00:20.761Z,1018.84
2016-05-02T01:01:20.732Z,1018.88
2016-05-02T01:02:20.704Z,1018.87
2016-05-02T01:03:20.684Z,1018.87
2016-05-02T01:04:20.700Z,1018.85
2016-05-02T01:05:20.716Z,1018.86
2016-05-02T01:06:20.732Z,1018.87
2016-05-02T01:07:20.762Z,1018.85
2016-05-02T01:08:20.756Z,1018.91
2016-05-02T01:09:20.744Z,1018.9
2016-05-02T01:10:20.747Z,1018.9
2016-05-02T01:11:20.735Z,1018.91
2016-05-02T01:12:20.723Z,1018.89
2016-05-02T01:13:20.709Z,1018.88
2016-05-02T01:14:20.685Z,1018.88
2016-05-02T01:15:20.662Z,1018.84
2016-05-02T01:16:20.640Z,1018.84
2016-05-02T01:17:20.618Z,1018.87
2016-05-02T01:18:20.593Z,1018.82
2016-05-02T01:19:20.567Z,1018.8
2016-05-02T01:20:20.555Z,1018.8
2016-05-02T01:21:20.514Z,1018.79
2016-05-02T01:22:20.486Z,1018.76
2016-05-02T01:23:20.476Z,1018.81
2016-05-02T01:24:20.447Z,1018.78
2016-05-02T01:25:20.420Z,1018.78
2016-05-02T01:26:20.393Z,1018.81
2016-05-02T01:27:20.364Z,1018.75
2016-05-02T01:28:20.336Z,1018.79
2016-05-02T01:29:20.308Z,1018.74
2016-05-02T01:30:20.280Z,1018.77
2016-05-02T01:31:20.252Z,1018.76
2016-05-02T01:32:20.224Z,1018.77
2016-05-02T01:33:20.211Z,1018.73
2016-05-02T01:34:20.167Z,1018.77
2016-05-02T01:35:20.154Z,1018.72
2016-05-02T01:36:20.219Z,1018.72
2016-05-02T01:37:20.097Z,1018.71
2016-05-02T01:38:20.069Z,1018.7
2016-05-02T01:39:20.040Z,1018.67
2016-05-02T01:40:20.011Z,1018.67
2016-05-02T01:41:19.983Z,1018.66
2016-05-02T01:42:19.954Z,1018.66
2016-05-02T01:43:19.925Z,1018.67
2016-05-02T01:44:19.897Z,1018.62
2016-05-02T01:45:19.869Z,1018.62
2016-05-02T01:46:19.855Z,1018.59
2016-05-02T01:47:19.811Z,1018.58
2016-05-02T01:48:19.799Z,1018.56
2016-05-02T01:49:19.769Z,1018.57
2016-05-02T01:50:19.741Z,1018.57
2016-05-02T01:51:19.916Z,1018.55
2016-05-02T01:52:19.685Z,1018.56
2016-05-02T01:53:19.655Z,1018.54
2016-05-02T01:54:19.627Z,1018.55
2016-05-02T01:55:19.598Z,1018.55
2016-05-02T01:56:19.570Z,1018.54
2016-05-02T01:57:19.541Z,1018.53
2016-05-02T01:58:19.513Z,1018.52
2016-05-02T01:59:19.484Z,1018.49
2016-05-02T02:00:19.456Z,1018.47
2016-05-02T02:01:19.427Z,1018.46
2016-05-02T02:02:19.398Z,1018.47
2016-05-02T02:03:19.386Z,1018.42
2016-05-02T02:04:19.342Z,1018.42
2016-05-02T02:05:19.312Z,1018.44
2016-05-02T02:06:19.300Z,1018.43
2016-05-02T02:07:19.272Z,1018.44
2016-05-02T02:08:19.242Z,1018.42
2016-05-02T02:09:19.214Z,1018.42
2016-05-02T02:10:19.186Z,1018.41
2016-05-02T02:11:19.157Z,1018.4
2016-05-02T02:12:19.128Z,1018.42
2016-05-02T02:13:19.100Z,1018.41
2016-05-02T02:14:19.072Z,1018.38
2016-05-02T02:15:19.043Z,1018.37
2016-05-02T02:16:19.030Z,1018.36
2016-05-02T02:17:19.001Z,1018.35
2016-05-02T02:18:18.957Z,1018.35
2016-05-02T02:19:18.944Z,1018.35
2016-05-02T02:20:18.916Z,1018.38
2016-05-02T02:21:18.887Z,1018.36
2016-05-02T02:22:18.874Z,1018.39
2016-05-02T02:23:18.830Z,1018.38
2016-05-02T02:24:18.802Z,1018.37
2016-05-02T02:25:18.778Z,1018.36
2016-05-02T02:26:18.734Z,1018.36
2016-05-02T02:27:18.726Z,1018.34
2016-05-02T02:28:18.682Z,1018.34
2016-05-02T02:29:18.654Z,1018.35
2016-05-02T02:30:18.625Z,1018.38
2016-05-02T02:31:18.596Z,1018.37
2016-05-02T02:32:18.584Z,1018.36
2016-05-02T02:33:18.540Z,1018.3
2016-05-02T02:34:18.526Z,1018.32
2016-05-02T02:35:18.498Z,1018.33
2016-05-02T02:36:18.469Z,1018.28
2016-05-02T02:37:18.440Z,1018.32
2016-05-02T02:38:18.412Z,1018.32
2016-05-02T02:39:18.383Z,1018.3
2016-05-02T02:40:18.355Z,1018.29
2016-05-02T02:41:18.326Z,1018.31
2016-05-02T02:42:18.298Z,1018.32
2016-05-02T02:43:18.269Z,1018.26
2016-05-02T02:44:18.241Z,1018.28
2016-05-02T02:45:18.211Z,1018.28
2016-05-02T02:46:18.183Z,1018.32
2016-05-02T02:47:18.155Z,1018.27
2016-05-02T02:48:18.127Z,1018.29
2016-05-02T02:49:18.113Z,1018.27
2016-05-02T02:50:18.069Z,1018.25
2016-05-02T02:51:18.041Z,1018.25
2016-05-02T02:52:18.013Z,1018.27
2016-05-02T02:53:17.999Z,1018.26
2016-05-02T02:54:17.971Z,1018.24
2016-05-02T02:55:17.943Z,1018.26
2016-05-02T02:56:17.913Z,1018.2
2016-05-02T02:57:17.885Z,1018.26
2016-05-02T02:58:17.856Z,1018.22
2016-05-02T02:59:17.828Z,1018.26
2016-05-02T03:00:17.800Z,1018.2
2016-05-02T03:01:17.771Z,1018.2
2016-05-02T03:02:17.742Z,1018.22
2016-05-02T03:03:17.714Z,1018.21
2016-05-02T03:04:17.685Z,1018.2
2016-05-02T03:05:17.673Z,1018.2
2016-05-02T03:06:17.629Z,1018.21
2016-05-02T03:07:17.600Z,1018.19
2016-05-02T03:08:17.571Z,1018.15
2016-05-02T03:09:17.543Z,1018.19
2016-05-02T03:10:17.514Z,1018.17
2016-05-02T03:11:17.501Z,1018.18
2016-05-02T03:12:17.457Z,1018.15
2016-05-02T03:13:17.429Z,1018.14
2016-05-02T03:14:17.400Z,1018.15
2016-05-02T03:15:17.386Z,1018.15
2016-05-02T03:16:17.342Z,1018.14
2016-05-02T03:17:17.314Z,1018.12
2016-05-02T03:18:17.301Z,1018.05
2016-05-02T03:19:17.257Z,1018.11
2016-05-02T03:20:17.228Z,1018.07
2016-05-02T03:21:17.293Z,1018.1
2016-05-02T03:22:17.187Z,1018.09
2016-05-02T03:23:17.158Z,1018.07
2016-05-02T03:24:17.130Z,1018.1
2016-05-02T03:25:17.101Z,1018.1
2016-05-02T03:26:17.072Z,1018.06
2016-05-02T03:27:17.044Z,1018.08
2016-05-02T03:28:17.015Z,1018.09
2016-05-02T03:29:17.002Z,1018.09
2016-05-02T03:30:16.958Z,1018.07
2016-05-02T03:31:16.930Z,1018.09
2016-05-02T03:32:16.901Z,1018.05
2016-05-02T03:33:16.873Z,1018.05
2016-05-02T03:34:16.843Z,1018.02
2016-05-02T03:35:16.815Z,1018.04
2016-05-02T03:36:16.787Z,1018.01
2016-05-02T03:37:16.759Z,1018.04
2016-05-02T03:38:16.729Z,1018.02
2016-05-02T03:39:16.701Z,1018.04
2016-05-02T03:40:16.673Z,1018.02
2016-05-02T03:41:16.644Z,1018.03
2016-05-02T03:42:16.615Z,1017.99
2016-05-02T03:43:16.586Z,1018.01
2016-05-02T03:44:16.558Z,1018.03
2016-05-02T03:45:16.530Z,1017.99
2016-05-02T03:46:16.501Z,1017.97
2016-05-02T03:47:16.473Z,1017.99
2016-05-02T03:48:16.444Z,1017.98
2016-05-02T03:49:16.416Z,1017.95
2016-05-02T03:50:16.386Z,1017.96
2016-05-02T03:51:16.374Z,1017.97
2016-05-02T03:52:16.330Z,1017.98
2016-05-02T03:53:16.302Z,1017.98
2016-05-02T03:54:16.272Z,1017.98
2016-05-02T03:55:16.244Z,1017.98
2016-05-02T03:56:16.216Z,1017.99
2016-05-02T03:57:16.188Z,1017.94
2016-05-02T03:58:16.159Z,1017.96
2016-05-02T03:59:16.130Z,1017.94
2016-05-02T04:00:16.118Z,1017.95
2016-05-02T04:01:16.073Z,1017.95
2016-05-02T04:02:16.044Z,1017.97
2016-05-02T04:03:16.032Z,1017.97
2016-05-02T04:04:16.004Z,1017.97
2016-05-02T04:05:15.974Z,1017.97
2016-05-02T04:06:15.946Z,1017.97
2016-05-02T04:07:15.918Z,1018
2016-05-02T04:08:15.889Z,1018.04
2016-05-02T04:09:15.860Z,1018
2016-05-02T04:10:15.831Z,1017.97
2016-05-02T04:11:15.803Z,1018.01
2016-05-02T04:12:15.775Z,1017.97
2016-05-02T04:13:15.746Z,1017.99
2016-05-02T04:14:15.717Z,1018
2016-05-02T04:15:15.689Z,1018.04
2016-05-02T04:16:15.661Z,1018.03
2016-05-02T04:17:15.631Z,1018.04
2016-05-02T04:18:15.603Z,1018.07
2016-05-02T04:19:15.575Z,1018.08
2016-05-02T04:20:15.546Z,1018.08
2016-05-02T04:21:15.517Z,1018.11
2016-05-02T04:22:15.489Z,1018.1
2016-05-02T04:23:15.460Z,1018.09
2016-05-02T04:24:15.432Z,1018.08
2016-05-02T04:25:15.403Z,1018.1
2016-05-02T04:26:15.374Z,1018.08
2016-05-02T04:27:15.346Z,1018.06
2016-05-02T04:28:15.318Z,1018.08
2016-05-02T04:29:15.288Z,1018.09
2016-05-02T04:30:15.260Z,1018.1
2016-05-02T04:31:15.232Z,1018.11
2016-05-02T04:32:15.203Z,1018.09
2016-05-02T04:33:15.174Z,1018.07
2016-05-02T04:34:15.146Z,1018.06
2016-05-02T04:35:15.118Z,1018.09
2016-05-02T04:36:15.089Z,1018.06
2016-05-02T04:37:15.060Z,1018.07
2016-05-02T04:38:15.032Z,1018.06
2016-05-02T04:39:15.019Z,1018.08
2016-05-02T04:40:15.006Z,1018.01
2016-05-02T04:41:14.961Z,1018.08
2016-05-02T04:42:14.933Z,1018.11
2016-05-02T04:43:14.905Z,1018.12
2016-05-02T04:44:14.876Z,1018.14
2016-05-02T04:45:14.848Z,1018.13
2016-05-02T04:46:14.819Z,1018.14
2016-05-02T04:47:14.790Z,1018.15
2016-05-02T04:48:14.762Z,1018.17
2016-05-02T04:49:14.733Z,1018.15
2016-05-02T04:50:14.705Z,1018.14
2016-05-02T04:51:15.676Z,1018.16
2016-05-02T04:52:14.647Z,1018.13
2016-05-02T04:53:14.635Z,1018.12
2016-05-02T04:54:14.591Z,1018.12
2016-05-02T04:55:14.561Z,1018.14
2016-05-02T04:56:14.549Z,1018.14
2016-05-02T04:57:14.521Z,1018.1
2016-05-02T04:58:14.492Z,1018.07
2016-05-02T04:59:14.463Z,1018.06
2016-05-02T05:00:14.435Z,1018.06
2016-05-02T05:01:14.407Z,1018.08
2016-05-02T05:02:14.377Z,1018.07
2016-05-02T05:03:14.349Z,1018.06
2016-05-02T05:04:14.321Z,1018.05
2016-05-02T05:05:14.292Z,1018.06
2016-05-02T05:06:14.263Z,1018.1
2016-05-02T05:07:14.235Z,1018.11
2016-05-02T05:08:14.222Z,1018.09
2016-05-02T05:09:14.179Z,1018.07
2016-05-02T05:10:14.165Z,1018.06
2016-05-02T05:11:14.137Z,1018.08
2016-05-02T05:12:14.107Z,1018.07
2016-05-02T05:13:14.079Z,1018.08
2016-05-02T05:14:14.051Z,1018.02
2016-05-02T05:15:14.023Z,1018.04
2016-05-02T05:16:13.993Z,1018.02
2016-05-02T05:17:13.965Z,1018.03
2016-05-02T05:18:13.953Z,1018.02
2016-05-02T05:19:13.923Z,1017.97
2016-05-02T05:20:13.895Z,1018
2016-05-02T05:21:13.866Z,1018.01
2016-05-02T05:22:13.838Z,1017.98
2016-05-02T05:23:13.809Z,1017.98
2016-05-02T05:24:13.781Z,1017.98
2016-05-02T05:25:13.752Z,1018
2016-05-02T05:26:13.724Z,1017.96
2016-05-02T05:27:13.695Z,1017.94
2016-05-02T05:28:13.682Z,1017.95
2016-05-02T05:29:13.653Z,1017.97
2016-05-02T05:30:13.625Z,1017.96
2016-05-02T05:31:13.597Z,1017.97
2016-05-02T05:32:13.568Z,1017.96
2016-05-02T05:33:13.539Z,1017.96
2016-05-02T05:34:13.510Z,1017.97
2016-05-02T05:35:13.482Z,1017.99
2016-05-02T05:36:13.454Z,1017.98
2016-05-02T05:37:13.440Z,1017.99
2016-05-02T05:38:13.412Z,1018
2016-05-02T05:39:13.384Z,1018
2016-05-02T05:40:13.354Z,1018.03
2016-05-02T05:41:13.327Z,1018.04
2016-05-02T05:42:13.298Z,1018.04
2016-05-02T05:43:13.284Z,1018.04
2016-05-02T05:44:13.256Z,1018.05
2016-05-02T05:45:13.228Z,1018.05
2016-05-02T05:46:13.199Z,1018.06
2016-05-02T05:47:13.170Z,1018.05
2016-05-02T05:48:13.142Z,1018.04
2016-05-02T05:49:13.114Z,1018.03
2016-05-02T05:50:13.101Z,1018.01
2016-05-02T05:51:13.072Z,1018.03
2016-05-02T05:52:13.044Z,1018.03
2016-05-02T05:53:13.014Z,1018
2016-05-02T05:54:12.986Z,1018.02
2016-05-02T05:55:12.973Z,1018.01
2016-05-02T05:56:12.945Z,1018.03
2016-05-02T05:57:12.917Z,1017.97
2016-05-02T05:58:12.888Z,1017.96
2016-05-02T05:59:12.858Z,1017.98
2016-05-02T06:00:12.830Z,1017.97
2016-05-02T06:01:12.818Z,1017.98
2016-05-02T06:02:12.789Z,1018
2016-05-02T06:03:12.760Z,1017.96
2016-05-02T06:04:12.747Z,1018.01
2016-05-02T06:05:12.704Z,1018.01
2016-05-02T06:06:12.690Z,1018
2016-05-02T06:07:12.662Z,1018.04
2016-05-02T06:08:13.868Z,1018.01
2016-05-02T06:09:13.965Z,1018
2016-05-02T06:10:13.889Z,1018.01
2016-05-02T06:11:13.813Z,1018
2016-05-02T06:12:13.956Z,1018.04
2016-05-02T06:13:13.756Z,1018.05
2016-05-02T06:14:12.493Z,1018.04
2016-05-02T06:15:13.886Z,1018.06
2016-05-02T06:16:13.764Z,1018.05
2016-05-02T06:17:13.829Z,1018.05
2016-05-02T06:18:12.957Z,1018.04
2016-05-02T06:19:13.772Z,1018.06
2016-05-02T06:20:13.525Z,1018.07
2016-05-02T06:21:13.730Z,1018.07
2016-05-02T06:22:13.420Z,1018.08
2016-05-02T06:23:12.256Z,1018.05
2016-05-02T06:24:12.243Z,1018.02
2016-05-02T06:25:12.216Z,1018.07
2016-05-02T06:26:12.186Z,1018.08
2016-05-02T06:27:12.174Z,1018.08
2016-05-02T06:28:12.144Z,1018.09
2016-05-02T06:29:12.194Z,1018.07
2016-05-02T06:30:12.088Z,1018.05
2016-05-02T06:31:13.263Z,1018.05
2016-05-02T06:32:12.046Z,1018.06
2016-05-02T06:33:12.018Z,1018.06
2016-05-02T06:34:11.990Z,1018.1
2016-05-02T06:35:11.976Z,1018.02
2016-05-02T06:36:11.949Z,1018
2016-05-02T06:37:11.919Z,1018.04
2016-05-02T06:38:11.907Z,1018.01
2016-05-02T06:39:11.878Z,1018.03
2016-05-02T06:40:11.849Z,1018.05
2016-05-02T06:41:11.821Z,1018.05
2016-05-02T06:42:12.137Z,1018.03
2016-05-02T06:43:13.014Z,1018.06
2016-05-02T06:44:13.017Z,1018.03
2016-05-02T06:45:13.019Z,1017.97
2016-05-02T06:46:12.990Z,1017.97
2016-05-02T06:47:13.008Z,1017.99
2016-05-02T06:48:12.856Z,1017.94
2016-05-02T06:49:12.983Z,1017.92
2016-05-02T06:50:12.892Z,1017.87
2016-05-02T06:51:13.036Z,1017.86
2016-05-02T06:52:11.569Z,1017.89
2016-05-02T06:53:11.540Z,1017.86
2016-05-02T06:54:11.511Z,1017.85
2016-05-02T06:55:11.499Z,1017.87
2016-05-02T06:56:11.470Z,1017.84
2016-05-02T06:57:11.457Z,1017.88
2016-05-02T06:58:11.429Z,1017.84
2016-05-02T06:59:11.400Z,1017.84
2016-05-02T07:00:11.388Z,1017.82
2016-05-02T07:01:11.358Z,1017.81
2016-05-02T07:02:11.330Z,1017.85
2016-05-02T07:03:11.318Z,1017.83
2016-05-02T07:04:11.289Z,1017.8
2016-05-02T07:05:11.276Z,1017.83
2016-05-02T07:06:11.263Z,1017.88
2016-05-02T07:07:11.235Z,1017.85
2016-05-02T07:08:11.206Z,1017.86
2016-05-02T07:09:11.177Z,1017.85
2016-05-02T07:10:11.165Z,1017.87
2016-05-02T07:11:11.135Z,1017.83
2016-05-02T07:12:11.123Z,1017.83
2016-05-02T07:13:11.095Z,1017.85
2016-05-02T07:14:11.081Z,1017.79
2016-05-02T07:15:11.068Z,1017.83
2016-05-02T07:16:11.055Z,1017.83
2016-05-02T07:17:11.027Z,1017.83
2016-05-02T07:18:11.014Z,1017.78
2016-05-02T07:19:11.001Z,1017.8
2016-05-02T07:20:10.972Z,1017.79
2016-05-02T07:21:11.600Z,1017.78
2016-05-02T07:22:10.947Z,1017.82
2016-05-02T07:23:10.933Z,1017.82
2016-05-02T07:24:10.921Z,1017.81
2016-05-02T07:25:10.908Z,1017.85
2016-05-02T07:26:10.895Z,1017.8
2016-05-02T07:27:10.883Z,1017.8
2016-05-02T07:28:10.869Z,1017.76
2016-05-02T07:29:10.856Z,1017.77
2016-05-02T07:30:10.843Z,1017.76
2016-05-02T07:31:10.830Z,1017.77
2016-05-02T07:32:10.816Z,1017.79
2016-05-02T07:33:10.804Z,1017.76
2016-05-02T07:34:10.791Z,1017.75
2016-05-02T07:35:10.779Z,1017.75
2016-05-02T07:36:10.765Z,1017.73
2016-05-02T07:37:10.752Z,1017.76
2016-05-02T07:38:10.739Z,1017.76
2016-05-02T07:39:10.743Z,1017.71
2016-05-02T07:40:10.729Z,1017.75
2016-05-02T07:41:10.716Z,1017.68
2016-05-02T07:42:10.704Z,1017.69
2016-05-02T07:43:10.691Z,1017.66
2016-05-02T07:44:10.693Z,1017.71
2016-05-02T07:45:10.681Z,1017.67
2016-05-02T07:46:10.668Z,1017.67
2016-05-02T07:47:10.654Z,1017.66
2016-05-02T07:48:10.642Z,1017.63
2016-05-02T07:49:10.644Z,1017.65
2016-05-02T07:50:10.631Z,1017.66
2016-05-02T07:51:10.634Z,1017.61
2016-05-02T07:52:10.621Z,1017.63
2016-05-02T07:53:10.639Z,1017.64
2016-05-02T07:54:10.595Z,1017.62
2016-05-02T07:55:10.597Z,1017.62
2016-05-02T07:56:10.585Z,1017.62
2016-05-02T07:57:10.572Z,1017.63
2016-05-02T07:58:10.575Z,1017.63
2016-05-02T07:59:10.561Z,1017.6
2016-05-02T08:00:10.549Z,1017.63
2016-05-02T08:01:10.552Z,1017.64
2016-05-02T08:02:10.538Z,1017.65
2016-05-02T08:03:10.541Z,1017.61
2016-05-02T08:04:10.528Z,1017.59
2016-05-02T08:05:10.515Z,1017.62
2016-05-02T08:06:10.518Z,1017.59
2016-05-02T08:07:10.505Z,1017.64
2016-05-02T08:08:10.508Z,1017.66
2016-05-02T08:09:10.496Z,1017.61
2016-05-02T08:10:10.481Z,1017.64
2016-05-02T08:11:10.485Z,1017.61
2016-05-02T08:12:10.487Z,1017.6
2016-05-02T08:13:10.474Z,1017.57
2016-05-02T08:14:10.462Z,1017.55
2016-05-02T08:15:10.465Z,1017.58
2016-05-02T08:16:10.451Z,1017.56
2016-05-02T08:17:10.453Z,1017.6
2016-05-02T08:18:10.440Z,1017.57
2016-05-02T08:19:10.443Z,1017.6
2016-05-02T08:20:10.431Z,1017.58
2016-05-02T08:21:10.481Z,1017.57
2016-05-02T08:22:10.436Z,1017.56
2016-05-02T08:23:10.422Z,1017.57
2016-05-02T08:24:10.411Z,1017.56
2016-05-02T08:25:10.413Z,1017.58
2016-05-02T08:26:10.400Z,1017.54
2016-05-02T08:27:10.403Z,1017.54
2016-05-02T08:28:10.389Z,1017.53
2016-05-02T08:29:10.392Z,1017.54
2016-05-02T08:30:10.380Z,1017.55
2016-05-02T08:31:10.382Z,1017.52
2016-05-02T08:32:10.369Z,1017.52
2016-05-02T08:33:10.372Z,1017.54
2016-05-02T08:34:10.374Z,1017.54
2016-05-02T08:35:10.361Z,1017.51
2016-05-02T08:36:10.364Z,1017.53
2016-05-02T08:37:10.351Z,1017.54
2016-05-02T08:38:10.355Z,1017.51
2016-05-02T08:39:10.341Z,1017.48
2016-05-02T08:40:10.343Z,1017.45
2016-05-02T08:41:10.331Z,1017.46
2016-05-02T08:42:10.334Z,1017.41
2016-05-02T08:43:10.321Z,1017.38
2016-05-02T08:44:10.323Z,1017.36
2016-05-02T08:45:10.310Z,1017.34
2016-05-02T08:46:10.313Z,1017.31
2016-05-02T08:47:10.301Z,1017.3
2016-05-02T08:48:10.287Z,1017.27
2016-05-02T08:49:10.290Z,1017.32
2016-05-02T08:50:10.276Z,1017.33
2016-05-02T08:51:10.279Z,1017.31
2016-05-02T08:52:10.267Z,1017.27
2016-05-02T08:53:10.270Z,1017.28
2016-05-02T08:54:10.241Z,1017.25
2016-05-02T08:55:10.243Z,1017.24
2016-05-02T08:56:10.231Z,1017.25
2016-05-02T08:57:10.234Z,1017.27
2016-05-02T08:58:10.205Z,1017.26
2016-05-02T08:59:10.208Z,1017.24
2016-05-02T09:00:10.195Z,1017.22
2016-05-02T09:01:10.181Z,1017.26
2016-05-02T09:02:10.169Z,1017.23
2016-05-02T09:03:10.156Z,1017.22
2016-05-02T09:04:10.143Z,1017.2
2016-05-02T09:05:10.130Z,1017.19
2016-05-02T09:06:10.117Z,1017.14
2016-05-02T09:07:10.104Z,1017.1
2016-05-02T09:08:10.091Z,1017.14
2016-05-02T09:09:10.078Z,1017.09
2016-05-02T09:10:10.065Z,1017.14
2016-05-02T09:11:10.052Z,1017.13
2016-05-02T09:12:10.039Z,1017.14
2016-05-02T09:13:10.042Z,1017.12
2016-05-02T09:14:10.013Z,1017.1
2016-05-02T09:15:10.000Z,1017.1
2016-05-02T09:16:09.987Z,1017.07
2016-05-02T09:17:09.974Z,1017.08
2016-05-02T09:18:09.962Z,1017.13
2016-05-02T09:19:09.948Z,1017.1
2016-05-02T09:20:09.936Z,1017.12
2016-05-02T09:21:09.907Z,1017.08
2016-05-02T09:22:09.895Z,1017.12
2016-05-02T09:23:09.881Z,1017.11
2016-05-02T09:24:09.868Z,1017.09
2016-05-02T09:25:09.855Z,1017.05
2016-05-02T09:26:09.828Z,1017.06
2016-05-02T09:27:09.814Z,1017.04
2016-05-02T09:28:09.801Z,1017.02
2016-05-02T09:29:09.789Z,1017.02
2016-05-02T09:30:09.775Z,1016.97
2016-05-02T09:31:09.746Z,1016.97
2016-05-02T09:32:09.733Z,1017.02
2016-05-02T09:33:09.722Z,1016.99
2016-05-02T09:34:09.708Z,1016.99
2016-05-02T09:35:09.694Z,1016.98
2016-05-02T09:36:09.667Z,1017.01
2016-05-02T09:37:09.653Z,1016.98
2016-05-02T09:38:09.640Z,1016.96
2016-05-02T09:39:09.628Z,1016.99
2016-05-02T09:40:09.615Z,1016.96
2016-05-02T09:41:09.585Z,1016.97
2016-05-02T09:42:09.574Z,1016.95
2016-05-02T09:43:09.560Z,1016.95
2016-05-02T09:44:09.531Z,1016.93
2016-05-02T09:45:09.519Z,1016.93
2016-05-02T09:46:09.506Z,1016.9
2016-05-02T09:47:09.493Z,1016.89
2016-05-02T09:48:09.480Z,1016.89
2016-05-02T09:49:09.451Z,1016.87
2016-05-02T09:50:09.438Z,1016.87
2016-05-02T09:51:09.425Z,1016.83
2016-05-02T09:52:09.398Z,1016.83
2016-05-02T09:53:09.384Z,1016.83
2016-05-02T09:54:09.371Z,1016.81
2016-05-02T09:55:09.358Z,1016.79
2016-05-02T09:56:09.329Z,1016.8
2016-05-02T09:57:09.316Z,1016.73
2016-05-02T09:58:09.303Z,1016.7
2016-05-02T09:59:09.275Z,1016.71
2016-05-02T10:00:09.277Z,1016.72
2016-05-02T10:01:09.249Z,1016.68
2016-05-02T10:02:09.236Z,1016.65
2016-05-02T10:03:09.223Z,1016.64
2016-05-02T10:04:09.195Z,1016.65
2016-05-02T10:05:09.182Z,1016.63
2016-05-02T10:06:09.169Z,1016.61
2016-05-02T10:07:09.155Z,1016.63
2016-05-02T10:08:09.127Z,1016.62
2016-05-02T10:09:09.131Z,1016.58
2016-05-02T10:10:09.161Z,1016.55
2016-05-02T10:11:09.191Z,1016.57
2016-05-02T10:12:09.206Z,1016.48
2016-05-02T10:13:09.236Z,1016.51
2016-05-02T10:14:09.256Z,1016.48
2016-05-02T10:15:09.242Z,1016.49
2016-05-02T10:16:09.340Z,1016.47
2016-05-02T10:17:09.248Z,1016.45
2016-05-02T10:18:09.251Z,1016.43
2016-05-02T10:19:09.234Z,1016.42
2016-05-02T10:20:09.227Z,1016.47
2016-05-02T10:21:09.220Z,1016.46
2016-05-02T10:22:09.212Z,1016.43
2016-05-02T10:23:09.190Z,1016.4
2016-05-02T10:24:09.181Z,1016.36
2016-05-02T10:25:09.170Z,1016.39
2016-05-02T10:26:09.159Z,1016.38
2016-05-02T10:27:09.133Z,1016.38
2016-05-02T10:28:09.121Z,1016.36
2016-05-02T10:29:09.111Z,1016.35
2016-05-02T10:30:09.098Z,1016.34
2016-05-02T10:31:09.086Z,1016.31
2016-05-02T10:32:09.058Z,1016.34
2016-05-02T10:33:09.046Z,1016.31
2016-05-02T10:34:09.049Z,1016.31
2016-05-02T10:35:09.005Z,1016.29
2016-05-02T10:36:08.991Z,1016.29
2016-05-02T10:37:08.980Z,1016.27
2016-05-02T10:38:08.966Z,1016.28
2016-05-02T10:39:08.938Z,1016.24
2016-05-02T10:40:08.924Z,1016.24
2016-05-02T10:41:08.911Z,1016.18
2016-05-02T10:42:08.899Z,1016.21
2016-05-02T10:43:08.871Z,1016.17
2016-05-02T10:44:08.857Z,1016.15
2016-05-02T10:45:08.844Z,1016.19
2016-05-02T10:46:08.831Z,1016.18
2016-05-02T10:47:08.802Z,1016.13
2016-05-02T10:48:08.789Z,1016.14
2016-05-02T10:49:08.777Z,1016.12
2016-05-02T10:50:08.764Z,1016.11
2016-05-02T10:51:09.032Z,1016.09
2016-05-02T10:52:08.722Z,1016.09
2016-05-02T10:53:08.709Z,1016.02
2016-05-02T10:54:08.696Z,1016.03
2016-05-02T10:55:08.683Z,1016.06
2016-05-02T10:56:08.655Z,1016.02
2016-05-02T10:57:08.642Z,1015.98
2016-05-02T10:58:08.614Z,1015.96
2016-05-02T10:59:08.617Z,1015.96
2016-05-02T11:00:08.603Z,1015.96
2016-05-02T11:01:08.575Z,1015.92
2016-05-02T11:02:08.561Z,1015.93
2016-05-02T11:03:08.533Z,1015.89
2016-05-02T11:04:08.520Z,1015.9
2016-05-02T11:05:08.508Z,1015.9
2016-05-02T11:06:08.495Z,1015.87
2016-05-02T11:07:08.466Z,1015.78
2016-05-02T11:08:08.453Z,1015.81
2016-05-02T11:09:08.440Z,1015.84
2016-05-02T11:10:08.427Z,1015.82
2016-05-02T11:11:08.398Z,1015.82
2016-05-02T11:12:08.385Z,1015.79
2016-05-02T11:13:08.373Z,1015.8
2016-05-02T11:14:08.360Z,1015.79
2016-05-02T11:15:08.347Z,1015.82
2016-05-02T11:16:08.318Z,1015.79
2016-05-02T11:17:08.305Z,1015.83
2016-05-02T11:18:08.293Z,1015.82
2016-05-02T11:19:08.263Z,1015.81
2016-05-02T11:20:08.251Z,1015.79
2016-05-02T11:21:08.316Z,1015.76
2016-05-02T11:22:08.225Z,1015.75
2016-05-02T11:23:08.204Z,1015.7
2016-05-02T11:24:08.191Z,1015.68
2016-05-02T11:25:08.163Z,1015.68
2016-05-02T11:26:08.150Z,1015.72
2016-05-02T11:27:08.137Z,1015.7
2016-05-02T11:28:08.123Z,1015.72
2016-05-02T11:29:08.095Z,1015.66
2016-05-02T11:30:08.082Z,1015.67
2016-05-02T11:31:08.069Z,1015.65
2016-05-02T11:32:08.057Z,1015.64
2016-05-02T11:33:08.028Z,1015.65
2016-05-02T11:34:08.015Z,1015.63
2016-05-02T11:35:08.002Z,1015.63
2016-05-02T11:36:07.989Z,1015.61
2016-05-02T11:37:07.961Z,1015.57
2016-05-02T11:38:07.948Z,1015.53
2016-05-02T11:39:07.935Z,1015.55
2016-05-02T11:40:07.922Z,1015.57
2016-05-02T11:41:07.894Z,1015.54
2016-05-02T11:42:07.880Z,1015.53
2016-05-02T11:43:07.866Z,1015.5
2016-05-02T11:44:07.855Z,1015.49
2016-05-02T11:45:07.841Z,1015.44
2016-05-02T11:46:07.829Z,1015.42
2016-05-02T11:47:07.800Z,1015.41
2016-05-02T11:48:07.787Z,1015.44
2016-05-02T11:49:07.758Z,1015.39
2016-05-02T11:50:07.746Z,1015.39
2016-05-02T11:51:07.732Z,1015.36
2016-05-02T11:52:07.720Z,1015.34
2016-05-02T11:53:07.691Z,1015.32
2016-05-02T11:54:07.678Z,1015.33
2016-05-02T11:55:07.665Z,1015.29
2016-05-02T11:56:07.652Z,1015.29
2016-05-02T11:57:07.623Z,1015.29
2016-05-02T11:58:07.611Z,1015.28
2016-05-02T11:59:07.598Z,1015.24
2016-05-02T12:00:07.585Z,1015.2
2016-05-02T12:01:07.572Z,1015.21
2016-05-02T12:02:07.543Z,1015.18
2016-05-02T12:03:07.531Z,1015.11
2016-05-02T12:04:07.534Z,1015.15
2016-05-02T12:05:07.505Z,1015.14
2016-05-02T12:06:07.476Z,1015.11
2016-05-02T12:07:07.464Z,1015.07
2016-05-02T12:08:07.451Z,1015.05